createdAt,value
2018-11-12T00:02:09.166Z,30.62
2018-11-12T00:04:36.720Z,26.17
2018-11-12T00:07:04.320Z,30.10
2018-11-12T00:09:31.942Z,28.02
2018-11-12T00:11:59.556Z,26.50
2018-11-12T00:14:27.196Z,25.92
2018-11-12T00:16:54.761Z,22.62
2018-11-12T00:19:22.312Z,26.57
2018-11-12T00:21:49.934Z,27.50
2018-11-12T00:24:17.491Z,25.10
2018-11-12T00:26:45.095Z,23.05
2018-11-12T00:29:12.592Z,23.90
2018-11-12T00:31:40.133Z,24.80
2018-11-12T00:34:07.680Z,23.38
2018-11-12T00:36:35.200Z,24.98
2018-11-12T00:39:03.038Z,22.32
2018-11-12T00:41:31.518Z,22.45
2018-11-12T00:43:59.185Z,22.67
2018-11-12T00:46:26.903Z,22.48
2018-11-12T00:48:54.521Z,23.25
2018-11-12T00:51:22.022Z,21.42
2018-11-12T00:53:49.557Z,21.82
2018-11-12T00:56:17.129Z,23.05
2018-11-12T00:58:44.648Z,22.00
2018-11-12T01:01:12.205Z,21.02
2018-11-12T01:03:39.831Z,23.00
2018-11-12T01:06:07.450Z,22.48
2018-11-12T01:08:34.982Z,23.40
2018-11-12T01:11:02.593Z,21.80
2018-11-12T01:13:30.201Z,22.15
2018-11-12T01:15:57.982Z,20.40
2018-11-12T01:18:25.575Z,19.85
2018-11-12T01:20:53.103Z,19.65
2018-11-12T01:23:20.573Z,21.15
2018-11-12T01:25:48.075Z,21.93
2018-11-12T01:28:15.689Z,22.75
2018-11-12T01:30:43.223Z,21.57
2018-11-12T01:33:10.777Z,20.08
2018-11-12T01:35:38.283Z,20.90
2018-11-12T01:38:05.815Z,21.25
2018-11-12T01:40:33.393Z,20.60
2018-11-12T01:43:01.039Z,19.98
2018-11-12T01:45:28.799Z,19.12
2018-11-12T01:47:56.379Z,21.95
2018-11-12T01:50:24.004Z,19.15
2018-11-12T01:52:51.520Z,21.35
2018-11-12T01:55:19.485Z,22.25
2018-11-12T01:57:47.092Z,21.52
2018-11-12T02:00:17.607Z,21.93
2018-11-12T02:02:46.300Z,24.50
2018-11-12T02:05:13.880Z,29.75
2018-11-12T02:07:41.472Z,22.15
2018-11-12T02:10:10.364Z,26.62
2018-11-12T02:12:38.648Z,24.37
2018-11-12T02:15:08.278Z,27.77
2018-11-12T02:17:35.823Z,27.10
2018-11-12T02:20:04.106Z,30.85
2018-11-12T02:22:31.760Z,27.10
2018-11-12T02:24:59.568Z,23.95
2018-11-12T02:27:27.316Z,22.32
2018-11-12T02:29:54.916Z,23.27
2018-11-12T02:32:22.418Z,25.62
2018-11-12T02:34:49.971Z,24.70
2018-11-12T02:37:17.506Z,22.13
2018-11-12T02:39:45.062Z,22.70
2018-11-12T02:42:12.646Z,18.95
2018-11-12T02:44:40.184Z,19.20
2018-11-12T02:47:07.730Z,19.75
2018-11-12T02:49:35.248Z,20.27
2018-11-12T02:52:02.870Z,18.75
2018-11-12T02:54:30.543Z,22.65
2018-11-12T02:56:58.313Z,19.73
2018-11-12T02:59:26.068Z,20.20
2018-11-12T03:01:53.643Z,18.60
2018-11-12T03:04:21.164Z,19.73
2018-11-12T03:06:48.698Z,19.52
2018-11-12T03:09:16.362Z,19.30
2018-11-12T03:11:43.919Z,19.37
2018-11-12T03:14:11.479Z,18.48
2018-11-12T03:16:39.197Z,18.27
2018-11-12T03:19:06.731Z,20.20
2018-11-12T03:21:34.275Z,18.30
2018-11-12T03:24:01.861Z,20.50
2018-11-12T03:26:29.765Z,20.25
2018-11-12T03:28:57.501Z,19.52
2018-11-12T03:31:25.093Z,18.85
2018-11-12T03:33:52.781Z,19.02
2018-11-12T03:36:20.375Z,18.70
2018-11-12T03:38:47.981Z,19.95
2018-11-12T03:41:15.561Z,18.77
2018-11-12T03:43:43.114Z,17.77
2018-11-12T03:46:10.626Z,15.70
2018-11-12T03:48:38.145Z,16.75
2018-11-12T03:51:05.689Z,15.20
2018-11-12T03:53:33.286Z,15.70
2018-11-12T03:56:00.905Z,18.02
2018-11-12T03:58:28.543Z,25.08
2018-11-12T04:00:56.269Z,21.93
2018-11-12T04:03:23.853Z,21.70
2018-11-12T04:05:51.396Z,17.77
2018-11-12T04:08:18.961Z,22.25
2018-11-12T04:10:46.593Z,19.80
2018-11-12T04:13:14.159Z,18.90
2018-11-12T04:15:41.720Z,20.70
2018-11-12T04:18:09.287Z,21.87
2018-11-12T04:20:36.811Z,20.70
2018-11-12T04:23:05.137Z,19.15
2018-11-12T04:25:35.160Z,24.37
2018-11-12T04:28:02.851Z,40.15
2018-11-12T04:30:30.591Z,35.48
2018-11-12T04:32:58.302Z,32.38
2018-11-12T04:35:25.889Z,20.85
2018-11-12T04:37:53.418Z,15.28
2018-11-12T04:40:20.978Z,22.02
2018-11-12T04:42:48.804Z,17.20
2018-11-12T04:45:17.551Z,17.80
2018-11-12T04:47:45.825Z,16.17
2018-11-12T04:50:15.415Z,14.23
2018-11-12T04:52:43.086Z,16.62
2018-11-12T04:55:13.766Z,15.98
2018-11-12T04:57:42.014Z,15.00
2018-11-12T05:00:13.546Z,15.58
2018-11-12T05:02:41.138Z,14.20
2018-11-12T05:05:09.678Z,15.08
2018-11-12T05:07:37.371Z,16.45
2018-11-12T05:10:06.757Z,18.82
2018-11-12T05:12:34.287Z,16.35
2018-11-12T05:15:01.977Z,14.93
2018-11-12T05:17:29.652Z,16.02
2018-11-12T05:19:57.336Z,15.50
2018-11-12T05:22:24.937Z,16.95
2018-11-12T05:24:52.542Z,14.43
2018-11-12T05:27:20.103Z,15.48
2018-11-12T05:29:47.742Z,14.93
2018-11-12T05:32:15.279Z,16.00
2018-11-12T05:34:42.935Z,14.95
2018-11-12T05:37:10.478Z,15.03
2018-11-12T05:39:38.006Z,15.55
2018-11-12T05:42:05.576Z,45.55
2018-11-12T05:44:33.164Z,16.62
2018-11-12T05:47:00.839Z,20.80
2018-11-12T05:49:28.469Z,28.23
2018-11-12T05:51:56.084Z,32.55
2018-11-12T05:54:23.656Z,28.02
2018-11-12T05:56:51.210Z,24.05
2018-11-12T05:59:18.779Z,20.17
2018-11-12T06:01:46.418Z,16.45
2018-11-12T06:04:14.157Z,12.68
2018-11-12T06:06:41.742Z,10.88
2018-11-12T06:09:10.391Z,8.88
2018-11-12T06:11:38.141Z,8.75
2018-11-12T06:14:05.980Z,9.70
2018-11-12T06:16:33.556Z,10.00
2018-11-12T06:19:01.209Z,8.40
2018-11-12T06:21:28.928Z,7.80
2018-11-12T06:23:56.604Z,7.42
2018-11-12T06:26:24.209Z,7.83
2018-11-12T06:28:51.757Z,7.30
2018-11-12T06:31:19.393Z,7.67
2018-11-12T06:33:46.962Z,7.17
2018-11-12T06:36:14.633Z,7.58
2018-11-12T06:38:42.171Z,7.87
2018-11-12T06:41:09.669Z,9.05
2018-11-12T06:43:37.235Z,7.10
2018-11-12T06:46:04.863Z,8.68
2018-11-12T06:48:32.561Z,9.83
2018-11-12T06:51:00.205Z,8.05
2018-11-12T06:53:27.990Z,9.40
2018-11-12T06:55:55.455Z,8.85
2018-11-12T06:58:23.023Z,8.33
2018-11-12T07:00:50.605Z,9.15
2018-11-12T07:03:18.132Z,7.55
2018-11-12T07:05:45.740Z,8.08
2018-11-12T07:08:13.339Z,9.30
2018-11-12T07:10:40.931Z,12.18
2018-11-12T07:13:08.537Z,8.75
2018-11-12T07:15:36.025Z,10.13
2018-11-12T07:18:03.590Z,9.30
2018-11-12T07:20:31.228Z,10.15
2018-11-12T07:22:58.930Z,9.93
2018-11-12T07:25:27.864Z,10.00
2018-11-12T07:27:55.553Z,9.65
2018-11-12T07:30:24.407Z,9.68
2018-11-12T07:32:52.926Z,9.93
2018-11-12T07:35:20.837Z,8.48
2018-11-12T07:37:49.888Z,11.25
2018-11-12T07:40:18.106Z,11.15
2018-11-12T07:42:45.832Z,9.18
2018-11-12T07:45:15.716Z,9.70
2018-11-12T07:47:44.318Z,9.95
2018-11-12T07:50:21.018Z,9.50
2018-11-12T07:52:48.550Z,8.45
2018-11-12T07:55:17.893Z,9.15
2018-11-12T07:57:46.406Z,9.58
2018-11-12T08:00:23.762Z,8.78
2018-11-12T08:02:54.697Z,8.35
2018-11-12T08:05:22.474Z,7.90
2018-11-12T08:07:50.746Z,9.38
2018-11-12T08:10:18.973Z,8.73
2018-11-12T08:12:47.038Z,10.43
2018-11-12T08:15:15.929Z,10.23
2018-11-12T08:17:43.591Z,9.40
2018-11-12T08:20:13.102Z,8.33
2018-11-12T08:22:41.298Z,8.53
2018-11-12T08:25:09.898Z,7.95
2018-11-12T08:27:37.723Z,8.45
2018-11-12T08:30:07.716Z,8.53
2018-11-12T08:32:35.197Z,8.20
2018-11-12T08:35:02.793Z,8.33
2018-11-12T08:37:30.346Z,10.00
2018-11-12T08:39:58.344Z,9.45
2018-11-12T08:42:25.873Z,10.23
2018-11-12T08:44:53.496Z,7.55
2018-11-12T08:47:21.061Z,8.50
2018-11-12T08:49:48.782Z,8.65
2018-11-12T08:52:16.401Z,8.25
2018-11-12T08:54:43.954Z,9.08
2018-11-12T08:57:11.516Z,8.28
2018-11-12T08:59:39.113Z,7.85
2018-11-12T09:02:06.717Z,8.18
2018-11-12T09:04:34.255Z,8.43
2018-11-12T09:07:02.117Z,8.23
2018-11-12T09:09:29.939Z,8.30
2018-11-12T09:11:57.695Z,8.50
2018-11-12T09:14:25.258Z,9.48
2018-11-12T09:16:52.859Z,11.95
2018-11-12T09:19:20.593Z,12.10
2018-11-12T09:21:48.311Z,11.30
2018-11-12T09:24:15.922Z,10.60
2018-11-12T09:26:43.486Z,10.88
2018-11-12T09:29:11.087Z,11.65
2018-11-12T09:31:38.639Z,10.75
2018-11-12T09:34:06.238Z,10.58
2018-11-12T09:36:34.017Z,11.45
2018-11-12T09:39:01.652Z,11.53
2018-11-12T09:41:29.476Z,11.30
2018-11-12T09:43:57.158Z,9.95
2018-11-12T09:46:24.811Z,11.43
2018-11-12T09:48:52.515Z,11.78
2018-11-12T09:51:20.684Z,10.82
2018-11-12T09:53:48.385Z,10.45
2018-11-12T09:56:15.900Z,8.68
2018-11-12T09:58:43.462Z,7.75
2018-11-12T10:01:11.418Z,7.08
2018-11-12T10:03:39.921Z,6.65
2018-11-12T10:06:07.709Z,6.80
2018-11-12T10:08:36.639Z,7.95
2018-11-12T10:11:05.432Z,7.37
2018-11-12T10:13:33.573Z,7.83
2018-11-12T10:16:01.000Z,7.03
2018-11-12T10:18:26.266Z,7.42
2018-11-12T10:20:54.010Z,7.37
2018-11-12T10:23:21.872Z,7.30
2018-11-12T10:25:49.544Z,7.10
2018-11-12T10:28:18.372Z,7.60
2018-11-12T10:30:46.082Z,7.75
2018-11-12T10:33:13.627Z,8.10
2018-11-12T10:35:41.221Z,7.47
2018-11-12T10:38:09.270Z,7.87
2018-11-12T10:40:36.918Z,7.87
2018-11-12T10:43:04.744Z,7.03
2018-11-12T10:45:32.418Z,8.30
2018-11-12T10:48:00.271Z,8.43
2018-11-12T10:50:27.947Z,7.27
2018-11-12T10:52:55.615Z,7.33
2018-11-12T10:55:24.348Z,8.37
2018-11-12T10:57:51.944Z,7.50
2018-11-12T11:00:30.001Z,9.43
2018-11-12T11:03:05.286Z,7.93
2018-11-12T11:05:33.149Z,7.27
2018-11-12T11:08:00.772Z,7.57
2018-11-12T11:10:29.224Z,6.90
2018-11-12T11:12:58.129Z,7.60
2018-11-12T11:15:25.855Z,7.17
2018-11-12T11:17:53.430Z,7.70
2018-11-12T11:20:21.019Z,7.00
2018-11-12T11:22:48.619Z,7.73
2018-11-12T11:25:16.271Z,7.67
2018-11-12T11:27:43.845Z,7.17
2018-11-12T11:30:12.999Z,7.47
2018-11-12T11:32:40.785Z,8.00
2018-11-12T11:35:08.924Z,6.40
2018-11-12T11:37:36.643Z,6.47
2018-11-12T11:40:06.839Z,7.70
2018-11-12T11:42:34.387Z,9.50
2018-11-12T11:45:01.991Z,7.80
2018-11-12T11:47:29.869Z,8.30
2018-11-12T11:49:57.549Z,7.90
2018-11-12T11:52:25.069Z,8.80
2018-11-12T11:54:52.576Z,9.90
2018-11-12T11:57:20.096Z,8.80
2018-11-12T11:59:47.710Z,9.50
2018-11-12T12:02:15.429Z,8.77
2018-11-12T12:04:42.913Z,9.70
2018-11-12T12:07:10.438Z,10.10
2018-11-12T12:09:38.007Z,9.93
2018-11-12T12:12:05.574Z,9.33
2018-11-12T12:14:33.243Z,9.90
2018-11-12T12:17:00.918Z,8.97
2018-11-12T12:19:28.630Z,8.27
2018-11-12T12:21:56.261Z,7.57
2018-11-12T12:24:23.906Z,7.60
2018-11-12T12:26:51.482Z,7.90
2018-11-12T12:29:19.924Z,7.30
2018-11-12T12:31:47.561Z,7.20
2018-11-12T12:34:15.123Z,7.40
2018-11-12T12:36:42.794Z,8.00
2018-11-12T12:39:10.747Z,7.10
2018-11-12T12:41:38.322Z,8.20
2018-11-12T12:44:05.937Z,8.17
2018-11-12T12:46:33.560Z,7.70
2018-11-12T12:49:01.177Z,7.20
2018-11-12T12:51:28.895Z,8.20
2018-11-12T12:53:56.545Z,8.37
2018-11-12T12:56:24.108Z,6.73
2018-11-12T12:58:51.696Z,7.80
2018-11-12T13:01:19.300Z,7.80
2018-11-12T13:03:46.948Z,9.97
2018-11-12T13:06:14.584Z,10.00
2018-11-12T13:08:42.216Z,9.67
2018-11-12T13:11:09.772Z,9.83
2018-11-12T13:13:37.348Z,10.83
2018-11-12T13:16:04.948Z,12.13
2018-11-12T13:18:32.566Z,13.67
2018-11-12T13:21:00.315Z,9.10
2018-11-12T13:23:27.926Z,9.57
2018-11-12T13:25:55.541Z,9.80
2018-11-12T13:28:23.150Z,10.17
2018-11-12T13:30:50.708Z,9.97
2018-11-12T13:33:18.348Z,8.00
2018-11-12T13:35:45.958Z,9.87
2018-11-12T13:38:13.510Z,9.70
2018-11-12T13:40:41.026Z,9.57
2018-11-12T13:43:08.590Z,10.93
2018-11-12T13:45:36.153Z,10.07
2018-11-12T13:48:03.793Z,9.33
2018-11-12T13:50:31.431Z,10.63
2018-11-12T13:53:00.365Z,10.27
2018-11-12T13:55:28.068Z,10.10
2018-11-12T13:57:55.731Z,10.23
2018-11-12T14:00:25.778Z,9.43
2018-11-12T14:02:53.869Z,10.70
2018-11-12T14:05:22.260Z,10.50
2018-11-12T14:07:49.923Z,11.00
2018-11-12T14:10:20.737Z,11.10
2018-11-12T14:12:49.070Z,10.83
2018-11-12T14:15:18.264Z,10.50
2018-11-12T14:17:49.327Z,10.13
2018-11-12T14:20:17.135Z,11.00
2018-11-12T14:22:44.673Z,11.50
2018-11-12T14:25:13.367Z,11.47
2018-11-12T14:27:41.090Z,12.07
2018-11-12T14:30:11.328Z,10.83
2018-11-12T14:32:38.882Z,12.90
2018-11-12T14:35:07.357Z,12.80
2018-11-12T14:37:35.070Z,13.50
2018-11-12T14:40:02.738Z,12.53
2018-11-12T14:42:30.350Z,13.67
2018-11-12T14:44:58.098Z,14.37
2018-11-12T14:47:25.647Z,13.90
2018-11-12T14:49:53.236Z,14.60
2018-11-12T14:52:20.922Z,15.10
2018-11-12T14:54:48.573Z,14.40
2018-11-12T14:57:16.267Z,15.00
2018-11-12T14:59:43.817Z,14.50
2018-11-12T15:02:11.390Z,16.17
2018-11-12T15:04:38.999Z,16.43
2018-11-12T15:07:06.603Z,15.87
2018-11-12T15:09:34.175Z,16.20
2018-11-12T15:12:01.803Z,15.57
2018-11-12T15:14:29.576Z,15.33
2018-11-12T15:16:57.244Z,15.40
2018-11-12T15:19:24.776Z,14.93
2018-11-12T15:21:52.406Z,15.30
2018-11-12T15:24:19.957Z,15.80
2018-11-12T15:26:47.557Z,19.17
2018-11-12T15:29:15.223Z,18.00
2018-11-12T15:31:42.802Z,16.20
2018-11-12T15:34:10.399Z,16.00
2018-11-12T15:36:38.003Z,18.03
2018-11-12T15:39:07.739Z,16.87
2018-11-12T15:41:35.320Z,18.23
2018-11-12T15:44:03.362Z,18.80
2018-11-12T15:46:31.004Z,19.30
2018-11-12T15:48:58.719Z,18.50
2018-11-12T15:51:26.357Z,19.07
2018-11-12T15:53:54.018Z,18.63
2018-11-12T15:56:21.609Z,19.47
2018-11-12T15:58:49.206Z,18.55
2018-11-12T16:01:16.866Z,20.55
2018-11-12T16:03:44.449Z,18.43
2018-11-12T16:06:12.224Z,18.85
2018-11-12T16:08:39.708Z,19.23
2018-11-12T16:11:07.290Z,19.20
2018-11-12T16:13:35.025Z,21.20
2018-11-12T16:16:02.745Z,20.23
2018-11-12T16:18:30.531Z,19.80
2018-11-12T16:20:58.270Z,20.40
2018-11-12T16:23:25.929Z,19.07
2018-11-12T16:25:53.496Z,18.75
2018-11-12T16:28:21.090Z,24.30
2018-11-12T16:30:48.739Z,28.75
2018-11-12T16:33:16.372Z,33.08
2018-11-12T16:35:44.044Z,29.07
2018-11-12T16:38:11.697Z,25.27
2018-11-12T16:40:39.406Z,26.17
2018-11-12T16:43:07.058Z,23.83
2018-11-12T16:45:34.739Z,24.50
2018-11-12T16:48:02.437Z,20.37
2018-11-12T16:50:30.106Z,24.35
2018-11-12T16:52:57.851Z,26.45
2018-11-12T16:55:25.512Z,28.67
2018-11-12T16:57:53.176Z,27.55
2018-11-12T17:00:22.117Z,27.80
2018-11-12T17:02:49.809Z,25.10
2018-11-12T17:05:18.692Z,24.85
2018-11-12T17:07:46.375Z,24.37
2018-11-12T17:10:15.372Z,25.50
2018-11-12T17:12:43.687Z,27.32
2018-11-12T17:15:11.994Z,27.13
2018-11-12T17:17:39.734Z,30.17
2018-11-12T17:20:07.814Z,27.80
2018-11-12T17:22:35.495Z,29.12
2018-11-12T17:25:03.823Z,37.03
2018-11-12T17:27:31.424Z,29.82
2018-11-12T17:29:59.106Z,33.30
2018-11-12T17:32:26.812Z,38.98
2018-11-12T17:34:54.544Z,32.28
2018-11-12T17:37:22.197Z,33.80
2018-11-12T17:39:49.762Z,27.82
2018-11-12T17:42:17.377Z,28.67
2018-11-12T17:44:45.057Z,38.88
2018-11-12T17:47:12.755Z,24.50
2018-11-12T17:49:40.380Z,28.10
2018-11-12T17:52:08.008Z,28.35
2018-11-12T17:54:35.668Z,27.03
2018-11-12T17:57:03.341Z,31.15
2018-11-12T17:59:31.054Z,26.45
2018-11-12T18:01:58.873Z,29.75
2018-11-12T18:04:26.676Z,26.17
2018-11-12T18:06:54.344Z,29.18
2018-11-12T18:09:21.998Z,27.65
2018-11-12T18:11:49.720Z,26.85
2018-11-12T18:14:18.179Z,26.20
2018-11-12T18:16:45.882Z,26.68
2018-11-12T18:19:14.590Z,24.45
2018-11-12T18:21:42.340Z,24.20
2018-11-12T18:24:10.027Z,26.60
2018-11-12T18:26:37.712Z,21.17
2018-11-12T18:29:05.425Z,25.17
2018-11-12T18:31:33.357Z,20.90
2018-11-12T18:34:00.967Z,23.32
2018-11-12T18:36:28.891Z,21.45
2018-11-12T18:38:56.738Z,23.12
2018-11-12T18:41:24.448Z,21.68
2018-11-12T18:43:52.463Z,23.60
2018-11-12T18:46:20.319Z,22.17
2018-11-12T18:48:48.041Z,20.85
2018-11-12T18:51:15.878Z,21.45
2018-11-12T18:53:43.579Z,21.30
2018-11-12T18:56:11.308Z,24.45
2018-11-12T18:58:38.976Z,19.65
2018-11-12T19:01:06.675Z,21.17
2018-11-12T19:03:34.614Z,22.60
2018-11-12T19:06:02.368Z,21.50
2018-11-12T19:08:30.140Z,21.33
2018-11-12T19:10:58.651Z,14.73
2018-11-12T19:13:27.007Z,16.12
2018-11-12T19:15:54.735Z,20.17
2018-11-12T19:18:22.374Z,24.52
2018-11-12T19:20:50.820Z,22.67
2018-11-12T19:23:18.490Z,23.65
2018-11-12T19:25:46.506Z,22.55
2018-11-12T19:28:14.229Z,22.48
2018-11-12T19:30:42.004Z,24.65
2018-11-12T19:33:09.748Z,23.52
2018-11-12T19:35:37.428Z,20.90
2018-11-12T19:38:05.429Z,19.12
2018-11-12T19:40:34.394Z,19.75
2018-11-12T19:43:02.399Z,21.52
2018-11-12T19:45:31.063Z,23.37
2018-11-12T19:47:59.155Z,21.60
2018-11-12T19:50:28.875Z,19.50
2018-11-12T19:52:57.648Z,19.57
2018-11-12T19:55:26.931Z,20.68
2018-11-12T19:57:55.096Z,20.72
2018-11-12T20:00:26.296Z,24.50
2018-11-12T20:02:55.146Z,20.12
2018-11-12T20:05:22.962Z,21.70
2018-11-12T20:07:50.969Z,21.52
2018-11-12T20:10:19.845Z,21.55
2018-11-12T20:12:47.665Z,19.57
2018-11-12T20:15:17.961Z,18.90
2018-11-12T20:17:47.178Z,17.48
2018-11-12T20:20:22.171Z,18.35
2018-11-12T20:22:50.370Z,16.00
2018-11-12T20:25:18.780Z,13.90
2018-11-12T20:27:47.812Z,13.13
2018-11-12T20:30:19.806Z,14.00
2018-11-12T20:32:47.529Z,13.15
2018-11-12T20:35:15.265Z,13.48
2018-11-12T20:37:42.974Z,11.60
2018-11-12T20:40:11.662Z,12.50
2018-11-12T20:42:39.672Z,13.43
2018-11-12T20:45:09.090Z,14.58
2018-11-12T20:47:36.956Z,15.05
2018-11-12T20:50:05.688Z,14.75
2018-11-12T20:52:34.711Z,14.23
2018-11-12T20:55:02.494Z,16.70
2018-11-12T20:57:30.521Z,12.73
2018-11-12T20:59:58.275Z,13.40
2018-11-12T21:02:26.205Z,12.35
2018-11-12T21:04:53.927Z,12.50
2018-11-12T21:07:21.552Z,11.70
2018-11-12T21:09:49.976Z,12.25
2018-11-12T21:12:17.760Z,12.20
2018-11-12T21:14:45.492Z,13.30
2018-11-12T21:17:13.198Z,11.15
2018-11-12T21:19:41.017Z,11.18
2018-11-12T21:22:10.975Z,11.55
2018-11-12T21:24:38.653Z,10.95
2018-11-12T21:27:06.348Z,10.82
2018-11-12T21:29:34.060Z,12.30
2018-11-12T21:32:01.827Z,10.95
2018-11-12T21:34:29.560Z,12.98
2018-11-12T21:36:57.680Z,11.70
2018-11-12T21:39:25.304Z,12.50
2018-11-12T21:41:52.965Z,11.40
2018-11-12T21:44:20.554Z,11.48
2018-11-12T21:46:48.203Z,10.78
2018-11-12T21:49:15.918Z,9.18
2018-11-12T21:51:43.511Z,9.98
2018-11-12T21:54:11.104Z,11.43
2018-11-12T21:56:38.719Z,10.93
2018-11-12T21:59:06.343Z,10.20
2018-11-12T22:01:33.898Z,9.25
2018-11-12T22:04:01.645Z,10.03
2018-11-12T22:06:29.334Z,11.25
2018-11-12T22:08:57.062Z,10.55
2018-11-12T22:11:24.668Z,10.28
2018-11-12T22:13:52.226Z,8.88
2018-11-12T22:16:19.922Z,10.00
2018-11-12T22:18:47.532Z,7.90
2018-11-12T22:21:15.157Z,8.00
2018-11-12T22:23:42.759Z,9.38
2018-11-12T22:26:10.346Z,7.45
2018-11-12T22:28:37.923Z,6.83
2018-11-12T22:31:05.498Z,8.48
2018-11-12T22:33:33.135Z,9.13
2018-11-12T22:36:00.783Z,9.23
2018-11-12T22:38:28.487Z,9.83
2018-11-12T22:40:56.920Z,10.03
2018-11-12T22:43:24.515Z,9.53
2018-11-12T22:45:52.230Z,9.15
2018-11-12T22:48:19.657Z,8.50
2018-11-12T22:50:47.278Z,8.55
2018-11-12T22:53:14.842Z,9.08
2018-11-12T22:55:42.471Z,9.60
2018-11-12T22:58:10.029Z,9.05
2018-11-12T23:00:38.365Z,7.40
2018-11-12T23:03:06.529Z,7.92
2018-11-12T23:05:34.136Z,10.60
2018-11-12T23:08:01.789Z,8.33
2018-11-12T23:10:29.548Z,7.70
2018-11-12T23:12:57.236Z,8.35
2018-11-12T23:15:24.809Z,9.35
2018-11-12T23:17:52.411Z,10.13
2018-11-12T23:20:21.341Z,9.10
2018-11-12T23:22:49.355Z,8.90
2018-11-12T23:25:17.219Z,10.68
2018-11-12T23:27:45.422Z,10.45
2018-11-12T23:30:14.435Z,10.88
2018-11-12T23:32:42.027Z,10.45
2018-11-12T23:35:13.708Z,9.18
2018-11-12T23:37:41.920Z,9.18
2018-11-12T23:40:10.150Z,8.65
2018-11-12T23:42:37.696Z,12.05
2018-11-12T23:45:05.757Z,9.60
2018-11-12T23:47:33.770Z,9.60
2018-11-12T23:50:01.419Z,10.00
2018-11-12T23:52:29.118Z,9.33
2018-11-12T23:54:56.753Z,9.48
2018-11-12T23:57:24.316Z,9.10
2018-11-12T23:59:51.912Z,9.83
